This is the latest recevied weather packets stored in our database for station/object KD4KKF. If no packets are shown the sender has not sent any weather packets the latest 10 day(s).
| Time | Temp. | Humidity | Pressure | Rain* | Wind** | Luminosity | Snow |
|---|---|---|---|---|---|---|---|
| 1777782822 | 12.78° C | 74% | 1018.6 hPa | 0 mm | - | 0 W/m² | - |
| 1777782518 | 12.78° C | 73% | 1018.6 hPa | 0 mm | - | 0 W/m² | - |
| 1777782215 | 12.78° C | 73% | 1018.4 hPa | 0 mm | - | 0 W/m² | - |
| 1777781911 | 12.78° C | 73% | 1018.3 hPa | 0 mm | - | 0 W/m² | - |
| 1777781608 | 12.78° C | 72% | 1018.5 hPa | 0 mm | - | 0 W/m² | - |
| 1777781306 | 12.78° C | 72% | 1018.3 hPa | 0 mm | - | 0 W/m² | - |
| 1777781003 | 12.78° C | 72% | 1018.3 hPa | 0 mm | - | 0 W/m² | - |
| 1777780700 | 12.22° C | 74% | 1018.2 hPa | 0 mm | - | 0 W/m² | - |
| 1777780397 | 11.67° C | 78% | 1018.3 hPa | 0 mm | - | 0 W/m² | - |
| 1777780094 | 10° C | 84% | 1018.2 hPa | 0 mm | - | 0 W/m² | - |
| 1777779791 | 9.44° C | 92% | 1018.1 hPa | 0 mm | - | 0 W/m² | - |
| 1777779489 | 9.44° C | 94% | 1018.1 hPa | 0 mm | - | 0 W/m² | - |
| 1777779186 | 9.44° C | 93% | 1017.7 hPa | 0 mm | - | 0 W/m² | - |
| 1777778884 | 9.44° C | 93% | 1017.8 hPa | 0 mm | - | 0 W/m² | - |
| 1777778583 | 9.44° C | 92% | 1018 hPa | 0 mm | - | 0 W/m² | - |
| 1777778279 | 10° C | 91% | 1017.8 hPa | 0 mm | - | 0 W/m² | - |
| 1777777978 | 10° C | 89% | 1017.9 hPa | 0 mm | - | 0 W/m² | - |
| 1777777673 | 10° C | 89% | 1017.7 hPa | 0 mm | - | 0 W/m² | - |
| 1777777370 | 10° C | 88% | 1017.7 hPa | 0 mm | - | 0 W/m² | - |
| 1777777067 | 10° C | 87% | 1017.7 hPa | 0 mm | - | 0 W/m² | - |
| 1777776764 | 10° C | 88% | 1017.3 hPa | 0 mm | - | 0 W/m² | - |
| 1777776461 | 10.56° C | 87% | 1017.4 hPa | 0 mm | - | 0 W/m² | - |
| 1777776158 | 10.56° C | 86% | 1017.4 hPa | 0 mm | - | 0 W/m² | - |
| 1777775855 | 10.56° C | 86% | 1017.2 hPa | 0 mm | - | 0 W/m² | - |
| 1777775552 | 11.11° C | 85% | 1017.4 hPa | 0 mm | - | 0 W/m² | - |
* Rain latest hour (hover to see other rain measurements)
** Current wind speed in m/s (hover to see current wind gust speed)